createdAt,value
2022-11-03T00:01:44.928Z,18.11
2022-11-03T00:06:49.202Z,18.17
2022-11-03T00:11:47.437Z,18.32
2022-11-03T00:16:44.744Z,18.25
2022-11-03T00:21:41.760Z,18.24
2022-11-03T00:26:41.008Z,18.38
2022-11-03T00:31:38.680Z,18.51
2022-11-03T00:36:39.486Z,18.36
2022-11-03T00:41:36.473Z,18.20
2022-11-03T00:46:34.621Z,18.32
2022-11-03T00:51:35.443Z,18.08
2022-11-03T00:56:33.534Z,18.20
2022-11-03T01:01:34.005Z,18.02
2022-11-03T01:06:50.453Z,18.02
2022-11-03T01:11:51.658Z,18.11
2022-11-03T01:16:48.308Z,18.18
2022-11-03T01:21:48.023Z,18.30
2022-11-03T01:26:46.710Z,18.36
2022-11-03T01:31:45.750Z,18.29
2022-11-03T01:36:42.645Z,18.50
2022-11-03T01:41:42.156Z,18.42
2022-11-03T01:46:40.152Z,18.32
2022-11-03T01:51:39.419Z,18.12
2022-11-03T01:56:38.431Z,18.00
2022-11-03T02:01:35.303Z,17.99
2022-11-03T02:06:32.043Z,17.98
2022-11-03T02:11:50.039Z,18.04
2022-11-03T02:16:51.982Z,18.10
2022-11-03T02:21:55.047Z,18.11
2022-11-03T02:26:53.993Z,18.09
2022-11-03T02:31:56.207Z,17.98
2022-11-03T02:36:55.906Z,17.89
2022-11-03T02:41:56.864Z,17.79
2022-11-03T02:47:00.506Z,17.81
2022-11-03T02:52:00.401Z,17.86
2022-11-03T02:57:00.539Z,17.83
2022-11-03T03:01:59.985Z,17.86
2022-11-03T03:07:01.940Z,17.96
2022-11-03T03:12:00.443Z,18.18
2022-11-03T03:17:00.402Z,18.20
2022-11-03T03:22:00.965Z,18.23
2022-11-03T03:26:59.581Z,18.28
2022-11-03T03:32:01.568Z,18.32
2022-11-03T03:36:58.763Z,17.96
2022-11-03T03:41:56.129Z,17.75
2022-11-03T03:46:58.270Z,17.45
2022-11-03T03:51:56.045Z,17.48
2022-11-03T03:56:56.289Z,17.16
2022-11-03T04:01:53.240Z,17.13
2022-11-03T04:07:13.552Z,16.81
2022-11-03T04:12:32.243Z,16.79
2022-11-03T04:22:44.467Z,16.43
2022-11-03T04:27:41.726Z,16.48
2022-11-03T04:32:40.705Z,16.54
2022-11-03T04:37:42.492Z,16.39
2022-11-03T04:42:46.871Z,16.43
2022-11-03T04:47:43.678Z,16.45
2022-11-03T04:52:43.524Z,16.38
2022-11-03T04:57:43.168Z,16.52
2022-11-03T05:02:41.022Z,16.59
2022-11-03T05:07:37.582Z,16.53
2022-11-03T05:12:34.385Z,16.75
2022-11-03T05:17:31.088Z,16.65
2022-11-03T05:22:31.868Z,16.53
2022-11-03T05:27:31.432Z,16.44
2022-11-03T05:32:28.805Z,16.39
2022-11-03T05:37:31.375Z,16.45
2022-11-03T05:42:33.819Z,16.25
2022-11-03T05:47:32.795Z,16.62
2022-11-03T05:52:38.423Z,16.36
2022-11-03T05:57:38.827Z,16.58
2022-11-03T06:02:38.032Z,16.44
2022-11-03T06:07:34.711Z,16.68
2022-11-03T06:12:34.015Z,16.77
2022-11-03T06:17:34.388Z,16.76
2022-11-03T06:22:35.535Z,17.19
2022-11-03T06:27:34.355Z,16.97
2022-11-03T06:32:35.501Z,16.69
2022-11-03T06:37:32.486Z,16.92
2022-11-03T06:42:32.187Z,17.07
2022-11-03T06:47:29.321Z,17.28
2022-11-03T06:52:28.555Z,17.45
2022-11-03T06:57:25.143Z,17.64
2022-11-03T07:02:39.494Z,17.61
2022-11-03T07:07:41.560Z,17.72
2022-11-03T07:12:40.379Z,17.67
2022-11-03T07:17:37.392Z,18.10
2022-11-03T07:22:34.297Z,18.11
2022-11-03T07:27:32.864Z,18.21
2022-11-03T07:32:45.329Z,18.35
2022-11-03T07:37:44.861Z,18.53
2022-11-03T07:42:45.046Z,18.49
2022-11-03T07:47:47.258Z,18.51
2022-11-03T07:52:46.596Z,18.60
2022-11-03T07:57:44.067Z,18.66
2022-11-03T08:02:43.680Z,18.78
2022-11-03T08:07:40.407Z,18.69
2022-11-03T08:12:38.061Z,18.75
2022-11-03T08:17:35.287Z,18.82
2022-11-03T08:22:33.480Z,18.83
2022-11-03T08:27:30.588Z,18.90
2022-11-03T08:32:27.547Z,19.11
2022-11-03T08:37:24.870Z,19.20
2022-11-03T08:42:23.458Z,19.31
2022-11-03T08:47:20.538Z,19.27
2022-11-03T08:52:17.246Z,19.23
2022-11-03T08:57:16.943Z,19.36
2022-11-03T09:02:15.938Z,19.26
2022-11-03T09:07:12.794Z,19.23
2022-11-03T09:12:09.488Z,19.44
2022-11-03T09:17:08.252Z,19.52
2022-11-03T09:22:04.999Z,19.43
2022-11-03T09:27:02.500Z,19.55
2022-11-03T09:31:59.400Z,19.67
2022-11-03T09:37:00.780Z,19.61
2022-11-03T09:41:59.181Z,19.80
2022-11-03T09:46:58.493Z,19.36
2022-11-03T09:51:55.785Z,19.56
2022-11-03T09:56:54.762Z,19.77
2022-11-03T10:01:52.905Z,19.71
2022-11-03T10:06:49.609Z,19.37
2022-11-03T10:11:47.163Z,19.73
2022-11-03T10:16:53.495Z,19.93
2022-11-03T10:21:51.310Z,19.94
2022-11-03T10:26:48.677Z,19.97
2022-11-03T10:31:52.870Z,19.89
2022-11-03T10:37:09.108Z,20.08
2022-11-03T10:42:16.172Z,19.95
2022-11-03T10:47:22.712Z,19.85
2022-11-03T10:52:21.225Z,19.87
2022-11-03T10:57:20.211Z,20.07
2022-11-03T11:02:18.561Z,20.31
2022-11-03T11:07:19.775Z,20.47
2022-11-03T11:12:18.067Z,20.45
2022-11-03T11:17:29.531Z,20.50
2022-11-03T11:22:26.343Z,20.08
2022-11-03T11:27:44.794Z,20.32
2022-11-03T11:32:57.977Z,20.17
2022-11-03T11:37:54.729Z,20.31
2022-11-03T11:43:12.694Z,20.55
2022-11-03T11:48:18.932Z,20.44
2022-11-03T11:53:20.388Z,20.31
2022-11-03T11:58:19.559Z,20.40
2022-11-03T12:03:16.937Z,20.31
2022-11-03T12:08:20.748Z,20.59
2022-11-03T12:13:32.243Z,20.77
2022-11-03T12:18:38.862Z,20.67
2022-11-03T12:23:37.720Z,20.44
2022-11-03T12:28:35.489Z,20.28
2022-11-03T12:33:33.048Z,19.95
2022-11-03T12:38:29.762Z,19.90
2022-11-03T12:43:26.560Z,19.76
2022-11-03T12:48:23.335Z,19.80
2022-11-03T12:53:23.895Z,19.92
2022-11-03T12:58:22.496Z,19.91
2022-11-03T13:03:19.193Z,20.14
2022-11-03T13:13:18.962Z,20.03
2022-11-03T13:18:15.760Z,20.16
2022-11-03T13:23:12.695Z,20.00
2022-11-03T13:28:10.381Z,19.80
2022-11-03T13:33:07.927Z,20.08
2022-11-03T13:38:06.381Z,19.89
2022-11-03T13:43:03.200Z,19.58
2022-11-03T14:09:22.066Z,19.30
2022-11-03T14:14:22.247Z,19.23
2022-11-03T14:19:19.228Z,19.57
2022-11-03T14:24:16.077Z,19.30
2022-11-03T14:29:13.820Z,19.26
2022-11-03T14:34:13.048Z,19.45
2022-11-03T14:39:10.505Z,19.44
2022-11-03T14:44:07.515Z,19.37
2022-11-03T14:49:04.967Z,19.16
2022-11-03T14:54:02.476Z,18.91
2022-11-03T14:58:59.672Z,19.43
2022-11-03T15:03:56.482Z,19.58
2022-11-03T15:08:56.605Z,19.35
2022-11-03T15:13:54.828Z,19.18
2022-11-03T15:18:54.365Z,18.85
2022-11-03T15:29:09.364Z,18.93
2022-11-03T15:34:08.805Z,18.99
2022-11-03T15:39:05.636Z,19.10
2022-11-03T15:44:02.578Z,18.96
2022-11-03T15:49:04.457Z,18.93
2022-11-03T15:54:01.897Z,19.02
2022-11-03T15:58:58.642Z,18.79
2022-11-03T16:03:55.384Z,18.84
2022-11-03T16:08:52.823Z,18.72
2022-11-03T16:13:49.504Z,18.64
2022-11-03T16:18:51.593Z,18.67
2022-11-03T16:23:48.362Z,18.80
2022-11-03T16:28:45.782Z,18.86
2022-11-03T16:33:42.434Z,18.77
2022-11-03T16:38:39.279Z,18.90
2022-11-03T16:43:35.891Z,19.02
2022-11-03T16:48:33.361Z,19.03
2022-11-03T16:53:29.960Z,18.88
2022-11-03T16:58:26.589Z,18.89
2022-11-03T17:03:25.323Z,18.68
2022-11-03T17:13:39.367Z,18.70
2022-11-03T17:18:39.185Z,18.65
2022-11-03T17:23:38.966Z,18.66
2022-11-03T17:28:38.822Z,18.58
2022-11-03T17:33:37.255Z,18.53
2022-11-03T17:38:34.274Z,18.58
2022-11-03T17:43:32.046Z,18.65
2022-11-03T17:48:29.663Z,18.48
2022-11-03T17:53:30.263Z,18.56
2022-11-03T17:58:28.177Z,18.54
2022-11-03T18:03:26.031Z,18.65
2022-11-03T18:08:22.727Z,18.52
2022-11-03T18:13:20.878Z,18.46
2022-11-03T18:18:20.842Z,18.26
2022-11-03T18:23:22.265Z,18.07
2022-11-03T18:28:19.438Z,18.07
2022-11-03T18:33:18.339Z,18.14
2022-11-03T18:38:15.868Z,18.16
2022-11-03T18:43:14.102Z,18.08
2022-11-03T18:48:14.453Z,17.91
2022-11-03T18:53:13.351Z,17.98
2022-11-03T18:58:17.942Z,18.06
2022-11-03T19:03:15.493Z,17.93
2022-11-03T19:08:16.229Z,17.92
2022-11-03T19:13:15.375Z,17.98
2022-11-03T19:18:14.044Z,17.96
2022-11-03T19:23:10.960Z,18.03
2022-11-03T19:28:10.010Z,17.90
2022-11-03T19:33:07.890Z,17.94
2022-11-03T19:38:11.100Z,17.86
2022-11-03T19:43:09.003Z,17.83
2022-11-03T19:48:23.709Z,17.80
2022-11-03T19:53:23.730Z,17.40
2022-11-03T19:58:21.149Z,17.16
2022-11-03T20:03:18.079Z,17.12
2022-11-03T20:08:15.501Z,17.35
2022-11-03T20:13:14.313Z,17.49
2022-11-03T20:18:11.718Z,17.63
2022-11-03T20:23:15.085Z,17.91
2022-11-03T20:28:16.603Z,17.85
2022-11-03T20:33:16.792Z,17.95
2022-11-03T20:38:16.213Z,17.82
2022-11-03T20:43:20.549Z,17.58
2022-11-03T20:48:20.476Z,17.21
2022-11-03T20:53:18.912Z,16.93
2022-11-03T20:58:16.428Z,17.28
2022-11-03T21:03:31.428Z,17.53
2022-11-03T21:08:33.100Z,17.73
2022-11-03T21:13:29.739Z,17.63
2022-11-03T21:18:44.369Z,17.71
2022-11-03T21:23:42.778Z,16.85
2022-11-03T21:28:42.450Z,16.67
2022-11-03T21:33:39.109Z,16.63
2022-11-03T21:38:36.249Z,16.49
2022-11-03T21:43:52.436Z,16.39
2022-11-03T21:49:09.161Z,16.78
2022-11-03T21:54:05.850Z,16.85
2022-11-03T21:59:04.596Z,17.04
2022-11-03T22:04:01.308Z,16.52
2022-11-03T22:08:57.964Z,16.22
2022-11-03T22:13:58.201Z,15.91
2022-11-03T22:19:17.448Z,15.99
2022-11-03T22:24:32.310Z,16.01
2022-11-03T22:29:47.511Z,15.38
2022-11-03T22:35:03.156Z,15.58
2022-11-03T22:40:20.790Z,15.76
2022-11-03T22:45:35.219Z,15.82
2022-11-03T22:50:34.854Z,15.89
2022-11-03T22:55:31.652Z,15.55
2022-11-03T23:00:28.208Z,15.57
2022-11-03T23:05:24.905Z,15.58
2022-11-03T23:10:27.612Z,15.16
2022-11-03T23:15:33.269Z,15.46
2022-11-03T23:20:48.553Z,15.30
2022-11-03T23:25:48.078Z,15.08
2022-11-03T23:30:44.623Z,15.37
2022-11-03T23:35:41.189Z,15.13
2022-11-03T23:40:37.843Z,15.13
2022-11-03T23:45:59.117Z,15.33
2022-11-03T23:50:56.229Z,15.21
2022-11-03T23:56:08.356Z,15.37
